sensor_id;sensor_type;location;lat;lon;timestamp;pressure;altitude;pressure_sealevel;temperature;humidity
3102;BME280;1561;42.666;23.392;2023-07-08T00:00:29;95483.84;;;19.78;100.00
3102;BME280;1561;42.666;23.392;2023-07-08T00:02:58;95482.38;;;19.84;100.00
3102;BME280;1561;42.666;23.392;2023-07-08T00:05:25;95472.41;;;19.73;100.00
3102;BME280;1561;42.666;23.392;2023-07-08T00:08:00;95467.16;;;19.58;100.00
3102;BME280;1561;42.666;23.392;2023-07-08T00:10:49;95460.81;;;19.61;100.00
3102;BME280;1561;42.666;23.392;2023-07-08T00:13:19;95459.22;;;19.60;100.00
3102;BME280;1561;42.666;23.392;2023-07-08T00:15:50;95448.44;;;19.48;100.00
3102;BME280;1561;42.666;23.392;2023-07-08T00:18:21;95460.81;;;19.61;100.00
3102;BME280;1561;42.666;23.392;2023-07-08T00:20:52;95432.03;;;19.56;100.00
3102;BME280;1561;42.666;23.392;2023-07-08T00:23:24;95442.34;;;19.64;100.00
3102;BME280;1561;42.666;23.392;2023-07-08T00:25:53;95440.59;;;19.56;100.00
3102;BME280;1561;42.666;23.392;2023-07-08T00:28:21;95450.34;;;19.54;100.00
3102;BME280;1561;42.666;23.392;2023-07-08T00:30:49;95452.22;;;19.60;100.00
3102;BME280;1561;42.666;23.392;2023-07-08T00:33:20;95369.16;;;19.09;100.00
3102;BME280;1561;42.666;23.392;2023-07-08T00:35:47;95449.63;;;19.60;100.00
3102;BME280;1561;42.666;23.392;2023-07-08T00:38:15;95451.31;;;19.53;100.00
3102;BME280;1561;42.666;23.392;2023-07-08T00:41:00;95440.41;;;19.58;100.00
3102;BME280;1561;42.666;23.392;2023-07-08T00:43:37;95462.22;;;19.41;100.00
3102;BME280;1561;42.666;23.392;2023-07-08T00:46:16;95464.66;;;19.42;100.00
3102;BME280;1561;42.666;23.392;2023-07-08T00:48:48;95456.00;;;19.27;100.00
3102;BME280;1561;42.666;23.392;2023-07-08T00:51:20;95449.81;;;19.36;100.00
3102;BME280;1561;42.666;23.392;2023-07-08T00:53:50;95440.88;;;19.39;100.00
3102;BME280;1561;42.666;23.392;2023-07-08T00:56:35;95434.94;;;19.53;100.00
3102;BME280;1561;42.666;23.392;2023-07-08T00:59:09;95438.81;;;19.57;100.00
3102;BME280;1561;42.666;23.392;2023-07-08T01:01:40;95428.06;;;19.45;100.00
3102;BME280;1561;42.666;23.392;2023-07-08T01:04:14;95420.78;;;19.63;100.00
3102;BME280;1561;42.666;23.392;2023-07-08T01:06:46;95420.09;;;19.47;100.00
3102;BME280;1561;42.666;23.392;2023-07-08T01:09:19;95419.13;;;19.48;100.00
3102;BME280;1561;42.666;23.392;2023-07-08T01:11:50;95296.00;;;18.84;100.00
3102;BME280;1561;42.666;23.392;2023-07-08T01:14:21;95405.75;;;19.36;100.00
3102;BME280;1561;42.666;23.392;2023-07-08T01:16:56;95423.44;;;19.33;100.00
3102;BME280;1561;42.666;23.392;2023-07-08T01:19:23;95415.97;;;19.38;100.00
3102;BME280;1561;42.666;23.392;2023-07-08T01:22:00;95376.91;;;19.09;100.00
3102;BME280;1561;42.666;23.392;2023-07-08T01:24:29;95407.78;;;19.26;100.00
3102;BME280;1561;42.666;23.392;2023-07-08T01:26:59;95414.56;;;19.19;100.00
3102;BME280;1561;42.666;23.392;2023-07-08T01:29:27;95418.66;;;19.14;100.00
3102;BME280;1561;42.666;23.392;2023-07-08T01:31:58;95407.38;;;19.07;100.00
3102;BME280;1561;42.666;23.392;2023-07-08T01:34:28;95403.94;;;19.14;100.00
3102;BME280;1561;42.666;23.392;2023-07-08T01:36:59;95406.97;;;19.18;100.00
3102;BME280;1561;42.666;23.392;2023-07-08T01:39:30;95408.72;;;19.25;100.00
3102;BME280;1561;42.666;23.392;2023-07-08T01:42:04;95403.63;;;19.09;100.00
3102;BME280;1561;42.666;23.392;2023-07-08T01:44:38;95392.50;;;19.01;100.00
3102;BME280;1561;42.666;23.392;2023-07-08T01:47:10;95399.44;;;19.08;100.00
3102;BME280;1561;42.666;23.392;2023-07-08T01:49:41;95392.97;;;19.04;100.00
3102;BME280;1561;42.666;23.392;2023-07-08T01:52:12;95396.06;;;19.00;100.00
3102;BME280;1561;42.666;23.392;2023-07-08T01:54:41;95388.09;;;19.09;100.00
3102;BME280;1561;42.666;23.392;2023-07-08T01:57:13;95396.53;;;19.03;100.00
3102;BME280;1561;42.666;23.392;2023-07-08T01:59:42;95409.22;;;18.90;100.00
3102;BME280;1561;42.666;23.392;2023-07-08T02:02:12;95416.81;;;18.92;100.00
3102;BME280;1561;42.666;23.392;2023-07-08T02:04:41;95410.00;;;18.99;100.00
3102;BME280;1561;42.666;23.392;2023-07-08T02:07:09;95229.59;;;17.77;100.00
3102;BME280;1561;42.666;23.392;2023-07-08T02:09:40;95414.63;;;18.81;100.00
3102;BME280;1561;42.666;23.392;2023-07-08T02:12:10;95415.09;;;18.84;100.00
3102;BME280;1561;42.666;23.392;2023-07-08T02:14:38;95414.28;;;18.84;100.00
3102;BME280;1561;42.666;23.392;2023-07-08T02:17:07;95426.34;;;18.99;100.00
3102;BME280;1561;42.666;23.392;2023-07-08T02:19:37;95435.94;;;18.91;100.00
3102;BME280;1561;42.666;23.392;2023-07-08T02:22:05;95434.03;;;18.85;100.00
3102;BME280;1561;42.666;23.392;2023-07-08T02:24:34;95435.75;;;18.92;100.00
3102;BME280;1561;42.666;23.392;2023-07-08T02:27:03;95425.38;;;19.00;100.00
3102;BME280;1561;42.666;23.392;2023-07-08T02:29:40;95430.75;;;18.91;100.00
3102;BME280;1561;42.666;23.392;2023-07-08T02:32:08;95426.72;;;18.88;100.00
3102;BME280;1561;42.666;23.392;2023-07-08T02:34:36;95437.50;;;19.00;100.00
3102;BME280;1561;42.666;23.392;2023-07-08T02:37:05;95443.19;;;18.95;100.00
3102;BME280;1561;42.666;23.392;2023-07-08T02:39:33;95442.97;;;19.05;100.00
3102;BME280;1561;42.666;23.392;2023-07-08T02:42:05;95341.19;;;18.43;100.00
3102;BME280;1561;42.666;23.392;2023-07-08T02:44:33;95444.94;;;19.03;100.00
3102;BME280;1561;42.666;23.392;2023-07-08T02:47:03;95456.72;;;19.13;100.00
3102;BME280;1561;42.666;23.392;2023-07-08T02:49:30;95453.19;;;18.98;100.00
3102;BME280;1561;42.666;23.392;2023-07-08T02:51:57;95437.34;;;19.01;100.00
3102;BME280;1561;42.666;23.392;2023-07-08T02:54:34;95460.22;;;18.90;100.00
3102;BME280;1561;42.666;23.392;2023-07-08T02:57:04;95461.81;;;18.91;100.00
3102;BME280;1561;42.666;23.392;2023-07-08T02:59:41;95462.50;;;18.85;100.00
3102;BME280;1561;42.666;23.392;2023-07-08T03:02:12;95466.63;;;19.02;100.00
3102;BME280;1561;42.666;23.392;2023-07-08T03:04:40;95472.16;;;18.99;100.00
3102;BME280;1561;42.666;23.392;2023-07-08T03:07:12;95459.81;;;19.01;100.00
3102;BME280;1561;42.666;23.392;2023-07-08T03:09:39;95464.72;;;18.88;100.00
3102;BME280;1561;42.666;23.392;2023-07-08T03:12:11;95459.53;;;18.96;100.00
3102;BME280;1561;42.666;23.392;2023-07-08T03:14:41;95458.69;;;19.03;100.00
3102;BME280;1561;42.666;23.392;2023-07-08T03:17:10;95452.56;;;18.96;100.00
3102;BME280;1561;42.666;23.392;2023-07-08T03:19:38;95480.47;;;19.17;100.00
3102;BME280;1561;42.666;23.392;2023-07-08T03:22:05;95467.25;;;19.04;100.00
3102;BME280;1561;42.666;23.392;2023-07-08T03:24:34;95458.03;;;19.09;100.00
3102;BME280;1561;42.666;23.392;2023-07-08T03:27:05;95347.47;;;18.49;100.00
3102;BME280;1561;42.666;23.392;2023-07-08T03:29:36;95456.38;;;19.47;100.00
3102;BME280;1561;42.666;23.392;2023-07-08T03:32:04;95456.31;;;19.77;100.00
3102;BME280;1561;42.666;23.392;2023-07-08T03:34:33;95453.97;;;20.13;100.00
3102;BME280;1561;42.666;23.392;2023-07-08T03:37:05;95367.19;;;19.41;100.00
3102;BME280;1561;42.666;23.392;2023-07-08T03:39:34;95441.53;;;20.00;100.00
3102;BME280;1561;42.666;23.392;2023-07-08T03:42:02;95440.81;;;20.14;100.00
3102;BME280;1561;42.666;23.392;2023-07-08T03:44:30;95430.78;;;20.11;100.00
3102;BME280;1561;42.666;23.392;2023-07-08T03:46:59;95444.75;;;20.10;100.00
3102;BME280;1561;42.666;23.392;2023-07-08T03:49:26;95438.63;;;20.55;100.00
3102;BME280;1561;42.666;23.392;2023-07-08T03:51:54;95441.66;;;21.02;100.00
3102;BME280;1561;42.666;23.392;2023-07-08T03:54:23;95438.88;;;20.89;100.00
3102;BME280;1561;42.666;23.392;2023-07-08T03:56:52;95448.56;;;20.80;100.00
3102;BME280;1561;42.666;23.392;2023-07-08T03:59:22;95435.47;;;21.03;100.00
3102;BME280;1561;42.666;23.392;2023-07-08T04:01:55;95442.19;;;20.97;100.00
3102;BME280;1561;42.666;23.392;2023-07-08T04:04:29;95427.34;;;21.06;100.00
3102;BME280;1561;42.666;23.392;2023-07-08T04:07:05;95440.56;;;21.11;100.00
3102;BME280;1561;42.666;23.392;2023-07-08T04:09:34;95438.19;;;20.95;100.00
3102;BME280;1561;42.666;23.392;2023-07-08T04:12:01;95443.69;;;21.56;100.00
3102;BME280;1561;42.666;23.392;2023-07-08T04:14:28;95446.94;;;21.79;100.00
3102;BME280;1561;42.666;23.392;2023-07-08T04:16:58;95445.56;;;21.83;100.00
3102;BME280;1561;42.666;23.392;2023-07-08T04:19:27;95455.09;;;22.18;100.00
3102;BME280;1561;42.666;23.392;2023-07-08T04:22:02;95452.53;;;22.25;100.00
3102;BME280;1561;42.666;23.392;2023-07-08T04:24:31;95454.13;;;22.47;100.00
3102;BME280;1561;42.666;23.392;2023-07-08T04:27:00;95454.09;;;21.56;100.00
3102;BME280;1561;42.666;23.392;2023-07-08T04:29:27;95382.31;;;22.04;100.00
3102;BME280;1561;42.666;23.392;2023-07-08T04:31:55;95451.38;;;23.30;100.00
3102;BME280;1561;42.666;23.392;2023-07-08T04:34:26;95442.88;;;23.81;100.00
3102;BME280;1561;42.666;23.392;2023-07-08T04:36:56;95444.38;;;23.43;100.00
3102;BME280;1561;42.666;23.392;2023-07-08T04:39:27;95460.19;;;23.29;100.00
3102;BME280;1561;42.666;23.392;2023-07-08T04:41:59;95381.28;;;22.60;100.00
3102;BME280;1561;42.666;23.392;2023-07-08T04:44:42;95449.78;;;23.35;100.00
3102;BME280;1561;42.666;23.392;2023-07-08T04:47:10;95462.34;;;23.85;100.00
3102;BME280;1561;42.666;23.392;2023-07-08T04:49:39;95451.84;;;23.53;100.00
3102;BME280;1561;42.666;23.392;2023-07-08T04:52:09;95461.78;;;24.09;100.00
3102;BME280;1561;42.666;23.392;2023-07-08T04:54:37;95441.66;;;23.77;100.00
3102;BME280;1561;42.666;23.392;2023-07-08T04:57:04;95443.59;;;23.49;100.00
3102;BME280;1561;42.666;23.392;2023-07-08T04:59:33;95407.19;;;22.13;100.00
3102;BME280;1561;42.666;23.392;2023-07-08T05:02:02;95459.53;;;22.03;100.00
3102;BME280;1561;42.666;23.392;2023-07-08T05:04:29;95381.78;;;21.66;100.00
3102;BME280;1561;42.666;23.392;2023-07-08T05:07:00;95461.97;;;21.63;100.00
3102;BME280;1561;42.666;23.392;2023-07-08T05:09:27;95465.09;;;21.73;100.00
3102;BME280;1561;42.666;23.392;2023-07-08T05:11:59;95457.16;;;23.25;100.00
3102;BME280;1561;42.666;23.392;2023-07-08T05:14:26;95473.25;;;24.08;100.00
3102;BME280;1561;42.666;23.392;2023-07-08T05:16:54;95469.88;;;23.41;100.00
3102;BME280;1561;42.666;23.392;2023-07-08T05:19:23;95475.69;;;23.43;100.00
3102;BME280;1561;42.666;23.392;2023-07-08T05:21:51;95468.75;;;23.70;100.00
3102;BME280;1561;42.666;23.392;2023-07-08T05:24:19;95471.44;;;24.74;100.00
3102;BME280;1561;42.666;23.392;2023-07-08T05:26:48;95418.69;;;25.47;100.00
3102;BME280;1561;42.666;23.392;2023-07-08T05:29:17;95476.19;;;25.60;100.00
3102;BME280;1561;42.666;23.392;2023-07-08T05:31:44;95469.41;;;24.76;100.00
3102;BME280;1561;42.666;23.392;2023-07-08T05:34:12;95402.00;;;24.91;100.00
3102;BME280;1561;42.666;23.392;2023-07-08T05:36:43;95479.84;;;24.89;100.00
3102;BME280;1561;42.666;23.392;2023-07-08T05:39:13;95482.63;;;25.07;100.00
3102;BME280;1561;42.666;23.392;2023-07-08T05:41:44;95461.38;;;24.51;100.00
3102;BME280;1561;42.666;23.392;2023-07-08T05:44:20;95441.03;;;24.92;100.00
3102;BME280;1561;42.666;23.392;2023-07-08T05:46:51;95454.03;;;25.62;100.00
3102;BME280;1561;42.666;23.392;2023-07-08T05:49:18;95476.28;;;24.05;100.00
3102;BME280;1561;42.666;23.392;2023-07-08T05:51:45;95501.41;;;24.65;100.00
3102;BME280;1561;42.666;23.392;2023-07-08T05:54:12;95491.31;;;25.58;100.00
3102;BME280;1561;42.666;23.392;2023-07-08T05:56:40;95498.16;;;24.82;100.00
3102;BME280;1561;42.666;23.392;2023-07-08T05:59:07;95490.50;;;22.40;100.00
3102;BME280;1561;42.666;23.392;2023-07-08T06:01:36;95510.91;;;22.16;100.00
3102;BME280;1561;42.666;23.392;2023-07-08T06:04:08;95505.38;;;23.01;100.00
3102;BME280;1561;42.666;23.392;2023-07-08T06:06:36;95508.84;;;24.61;100.00
3102;BME280;1561;42.666;23.392;2023-07-08T06:09:03;95500.59;;;25.98;100.00
3102;BME280;1561;42.666;23.392;2023-07-08T06:11:30;95508.03;;;24.80;100.00
3102;BME280;1561;42.666;23.392;2023-07-08T06:13:59;95517.88;;;24.72;100.00
3102;BME280;1561;42.666;23.392;2023-07-08T06:16:28;95505.78;;;24.06;100.00
3102;BME280;1561;42.666;23.392;2023-07-08T06:19:01;95499.41;;;23.55;100.00
3102;BME280;1561;42.666;23.392;2023-07-08T06:21:28;95499.81;;;23.17;100.00
3102;BME280;1561;42.666;23.392;2023-07-08T06:23:59;95510.78;;;23.47;100.00
3102;BME280;1561;42.666;23.392;2023-07-08T06:26:26;95513.06;;;22.82;100.00
3102;BME280;1561;42.666;23.392;2023-07-08T06:28:57;95519.63;;;23.05;100.00
3102;BME280;1561;42.666;23.392;2023-07-08T06:31:24;95525.34;;;23.22;100.00
3102;BME280;1561;42.666;23.392;2023-07-08T06:33:51;95529.72;;;23.56;100.00
3102;BME280;1561;42.666;23.392;2023-07-08T06:36:24;95520.22;;;23.95;100.00
3102;BME280;1561;42.666;23.392;2023-07-08T06:38:51;95519.69;;;24.65;100.00
3102;BME280;1561;42.666;23.392;2023-07-08T06:41:19;95505.66;;;25.86;100.00
3102;BME280;1561;42.666;23.392;2023-07-08T06:43:46;95505.13;;;25.08;100.00
3102;BME280;1561;42.666;23.392;2023-07-08T06:46:14;95498.34;;;24.94;100.00
3102;BME280;1561;42.666;23.392;2023-07-08T06:48:41;95503.06;;;25.42;100.00
3102;BME280;1561;42.666;23.392;2023-07-08T06:51:09;95479.81;;;26.27;95.39
3102;BME280;1561;42.666;23.392;2023-07-08T06:53:39;95503.97;;;25.61;100.00
3102;BME280;1561;42.666;23.392;2023-07-08T06:56:16;95482.88;;;24.73;100.00
3102;BME280;1561;42.666;23.392;2023-07-08T06:58:46;95503.59;;;24.42;100.00
3102;BME280;1561;42.666;23.392;2023-07-08T07:01:16;95524.69;;;24.53;100.00
3102;BME280;1561;42.666;23.392;2023-07-08T07:03:43;95509.63;;;24.55;100.00
3102;BME280;1561;42.666;23.392;2023-07-08T07:06:12;95518.81;;;25.29;100.00
3102;BME280;1561;42.666;23.392;2023-07-08T07:08:40;95516.44;;;24.50;100.00
3102;BME280;1561;42.666;23.392;2023-07-08T07:11:07;95512.44;;;24.73;100.00
3102;BME280;1561;42.666;23.392;2023-07-08T07:13:35;95518.53;;;25.37;100.00
3102;BME280;1561;42.666;23.392;2023-07-08T07:16:09;95512.19;;;25.07;100.00
3102;BME280;1561;42.666;23.392;2023-07-08T07:18:40;95517.16;;;25.79;95.09
3102;BME280;1561;42.666;23.392;2023-07-08T07:21:10;95497.94;;;26.04;90.08
3102;BME280;1561;42.666;23.392;2023-07-08T07:23:40;95512.75;;;26.41;87.19
3102;BME280;1561;42.666;23.392;2023-07-08T07:26:13;95521.44;;;26.91;85.12
3102;BME280;1561;42.666;23.392;2023-07-08T07:28:41;95520.19;;;27.54;77.29
3102;BME280;1561;42.666;23.392;2023-07-08T07:31:11;95522.69;;;24.75;97.60
3102;BME280;1561;42.666;23.392;2023-07-08T07:33:42;95432.88;;;25.20;97.21
3102;BME280;1561;42.666;23.392;2023-07-08T07:36:09;95536.03;;;26.31;87.86
3102;BME280;1561;42.666;23.392;2023-07-08T07:38:37;95518.44;;;26.07;83.95
3102;BME280;1561;42.666;23.392;2023-07-08T07:41:11;95523.78;;;26.74;80.63
3102;BME280;1561;42.666;23.392;2023-07-08T07:43:41;95530.81;;;27.41;76.84
3102;BME280;1561;42.666;23.392;2023-07-08T07:46:08;95506.75;;;27.62;74.92
3102;BME280;1561;42.666;23.392;2023-07-08T07:48:39;95524.25;;;26.16;83.84
3102;BME280;1561;42.666;23.392;2023-07-08T07:51:11;95455.06;;;26.23;82.75
3102;BME280;1561;42.666;23.392;2023-07-08T07:53:41;95527.03;;;26.45;82.88
3102;BME280;1561;42.666;23.392;2023-07-08T07:56:11;95521.16;;;27.23;76.37
3102;BME280;1561;42.666;23.392;2023-07-08T07:58:38;95520.13;;;28.49;68.62
3102;BME280;1561;42.666;23.392;2023-07-08T08:01:06;95521.06;;;28.36;69.32
3102;BME280;1561;42.666;23.392;2023-07-08T08:03:39;95503.44;;;28.55;67.22
3102;BME280;1561;42.666;23.392;2023-07-08T08:06:07;95527.91;;;29.36;63.50
3102;BME280;1561;42.666;23.392;2023-07-08T08:08:35;95508.81;;;28.71;67.12
3102;BME280;1561;42.666;23.392;2023-07-08T08:11:04;95528.50;;;27.33;71.25
3102;BME280;1561;42.666;23.392;2023-07-08T08:13:32;95505.53;;;27.28;73.64
3102;BME280;1561;42.666;23.392;2023-07-08T08:16:00;95523.47;;;26.64;78.73
3102;BME280;1561;42.666;23.392;2023-07-08T08:18:27;95505.25;;;27.54;76.35
3102;BME280;1561;42.666;23.392;2023-07-08T08:20:57;95526.34;;;27.95;71.55
3102;BME280;1561;42.666;23.392;2023-07-08T08:23:24;95515.13;;;28.29;68.38
3102;BME280;1561;42.666;23.392;2023-07-08T08:25:50;95526.25;;;28.02;69.88
3102;BME280;1561;42.666;23.392;2023-07-08T08:28:18;95528.94;;;27.30;74.17
3102;BME280;1561;42.666;23.392;2023-07-08T08:30:48;95537.38;;;27.50;72.90
3102;BME280;1561;42.666;23.392;2023-07-08T08:33:17;95530.88;;;27.70;69.69
3102;BME280;1561;42.666;23.392;2023-07-08T08:35:45;95529.47;;;27.86;71.89
3102;BME280;1561;42.666;23.392;2023-07-08T08:38:12;95511.34;;;28.66;67.52
3102;BME280;1561;42.666;23.392;2023-07-08T08:40:41;95508.03;;;29.68;62.82
3102;BME280;1561;42.666;23.392;2023-07-08T08:43:13;95513.84;;;29.82;62.33
3102;BME280;1561;42.666;23.392;2023-07-08T08:45:46;95516.03;;;30.57;58.02
3102;BME280;1561;42.666;23.392;2023-07-08T08:48:18;95525.66;;;28.29;67.41
3102;BME280;1561;42.666;23.392;2023-07-08T08:50:51;95523.16;;;28.34;68.62
3102;BME280;1561;42.666;23.392;2023-07-08T08:53:21;95523.53;;;28.08;70.31
3102;BME280;1561;42.666;23.392;2023-07-08T08:55:53;95509.44;;;29.71;62.41
3102;BME280;1561;42.666;23.392;2023-07-08T08:58:27;95479.28;;;29.78;59.62
3102;BME280;1561;42.666;23.392;2023-07-08T09:00:59;95526.75;;;29.43;61.50
3102;BME280;1561;42.666;23.392;2023-07-08T09:03:47;95521.03;;;29.47;61.79
3102;BME280;1561;42.666;23.392;2023-07-08T09:06:20;95506.81;;;29.59;60.24
3102;BME280;1561;42.666;23.392;2023-07-08T09:08:48;95423.31;;;29.32;61.30
3102;BME280;1561;42.666;23.392;2023-07-08T09:11:27;95522.72;;;30.48;57.55
3102;BME280;1561;42.666;23.392;2023-07-08T09:13:59;95496.47;;;29.97;59.85
3102;BME280;1561;42.666;23.392;2023-07-08T09:16:37;95517.50;;;28.60;63.57
3102;BME280;1561;42.666;23.392;2023-07-08T09:19:12;95494.84;;;30.52;59.73
3102;BME280;1561;42.666;23.392;2023-07-08T09:21:44;95506.97;;;31.79;53.22
3102;BME280;1561;42.666;23.392;2023-07-08T09:24:22;95490.41;;;30.58;55.37
3102;BME280;1561;42.666;23.392;2023-07-08T09:26:53;95493.88;;;30.75;55.71
3102;BME280;1561;42.666;23.392;2023-07-08T09:29:22;95506.59;;;30.61;55.66
3102;BME280;1561;42.666;23.392;2023-07-08T09:31:52;95486.34;;;30.67;55.12
3102;BME280;1561;42.666;23.392;2023-07-08T09:34:23;95506.78;;;30.71;55.71
3102;BME280;1561;42.666;23.392;2023-07-08T09:36:51;95492.06;;;29.47;58.88
3102;BME280;1561;42.666;23.392;2023-07-08T09:39:19;95503.34;;;28.73;63.39
3102;BME280;1561;42.666;23.392;2023-07-08T09:41:48;95493.13;;;28.88;60.94
3102;BME280;1561;42.666;23.392;2023-07-08T09:44:21;95489.84;;;28.81;61.24
3102;BME280;1561;42.666;23.392;2023-07-08T09:46:56;95448.22;;;28.78;61.22
3102;BME280;1561;42.666;23.392;2023-07-08T09:49:28;95474.91;;;29.44;59.10
3102;BME280;1561;42.666;23.392;2023-07-08T09:52:01;95473.97;;;29.62;56.11
3102;BME280;1561;42.666;23.392;2023-07-08T09:54:28;95465.31;;;29.38;57.20
3102;BME280;1561;42.666;23.392;2023-07-08T09:57:00;95493.94;;;28.54;60.79
3102;BME280;1561;42.666;23.392;2023-07-08T09:59:31;95467.09;;;29.09;60.02
3102;BME280;1561;42.666;23.392;2023-07-08T10:02:02;95471.81;;;30.15;56.46
3102;BME280;1561;42.666;23.392;2023-07-08T10:04:32;95478.91;;;30.31;55.32
3102;BME280;1561;42.666;23.392;2023-07-08T10:06:59;95481.44;;;29.42;57.83
3102;BME280;1561;42.666;23.392;2023-07-08T10:09:27;95487.53;;;28.96;61.36
3102;BME280;1561;42.666;23.392;2023-07-08T10:12:00;95488.97;;;29.50;60.43
3102;BME280;1561;42.666;23.392;2023-07-08T10:14:37;95481.38;;;30.54;56.97
3102;BME280;1561;42.666;23.392;2023-07-08T10:17:13;95461.25;;;29.87;56.60
3102;BME280;1561;42.666;23.392;2023-07-08T10:19:46;95477.09;;;29.75;56.79
3102;BME280;1561;42.666;23.392;2023-07-08T10:22:26;95467.16;;;30.22;55.17
3102;BME280;1561;42.666;23.392;2023-07-08T10:25:07;95465.47;;;30.98;52.28
3102;BME280;1561;42.666;23.392;2023-07-08T10:27:46;95454.91;;;31.20;51.21
3102;BME280;1561;42.666;23.392;2023-07-08T10:30:22;95460.81;;;31.22;51.93
3102;BME280;1561;42.666;23.392;2023-07-08T10:33:19;95464.69;;;29.59;55.13
3102;BME280;1561;42.666;23.392;2023-07-08T10:36:03;95463.44;;;29.62;55.76
3102;BME280;1561;42.666;23.392;2023-07-08T10:38:47;95462.88;;;29.48;56.83
3102;BME280;1561;42.666;23.392;2023-07-08T10:41:35;95456.00;;;29.59;55.99
3102;BME280;1561;42.666;23.392;2023-07-08T10:44:11;95453.31;;;29.70;56.49
3102;BME280;1561;42.666;23.392;2023-07-08T10:46:48;95439.66;;;30.67;53.25
3102;BME280;1561;42.666;23.392;2023-07-08T10:49:51;95442.22;;;30.79;52.28
3102;BME280;1561;42.666;23.392;2023-07-08T10:52:39;95435.50;;;31.09;51.16
3102;BME280;1561;42.666;23.392;2023-07-08T10:55:20;95361.06;;;29.25;54.06
3102;BME280;1561;42.666;23.392;2023-07-08T10:58:25;95428.00;;;29.69;53.18
3102;BME280;1561;42.666;23.392;2023-07-08T11:01:03;95426.75;;;30.87;51.09
3102;BME280;1561;42.666;23.392;2023-07-08T11:03:59;95440.75;;;30.05;53.72
3102;BME280;1561;42.666;23.392;2023-07-08T11:06:50;95435.63;;;29.82;52.89
3102;BME280;1561;42.666;23.392;2023-07-08T11:09:24;95415.44;;;29.60;52.81
3102;BME280;1561;42.666;23.392;2023-07-08T11:11:58;95422.41;;;30.43;51.82
3102;BME280;1561;42.666;23.392;2023-07-08T11:14:33;95422.59;;;30.20;51.63
3102;BME280;1561;42.666;23.392;2023-07-08T11:17:11;95403.50;;;29.69;53.30
3102;BME280;1561;42.666;23.392;2023-07-08T11:19:50;95416.00;;;29.90;52.96
3102;BME280;1561;42.666;23.392;2023-07-08T11:22:24;95413.31;;;30.51;52.27
3102;BME280;1561;42.666;23.392;2023-07-08T11:25:03;95409.09;;;31.26;51.45
3102;BME280;1561;42.666;23.392;2023-07-08T11:27:40;95393.44;;;29.54;54.07
3102;BME280;1561;42.666;23.392;2023-07-08T11:30:17;95416.41;;;28.79;55.85
3102;BME280;1561;42.666;23.392;2023-07-08T11:32:48;95410.38;;;28.67;57.35
3102;BME280;1561;42.666;23.392;2023-07-08T11:35:25;95405.56;;;28.53;58.14
3102;BME280;1561;42.666;23.392;2023-07-08T11:37:54;95403.81;;;28.81;55.59
3102;BME280;1561;42.666;23.392;2023-07-08T11:40:25;95401.94;;;29.84;53.23
3102;BME280;1561;42.666;23.392;2023-07-08T11:43:01;95409.34;;;28.45;56.55
3102;BME280;1561;42.666;23.392;2023-07-08T11:45:32;95414.84;;;28.67;57.13
3102;BME280;1561;42.666;23.392;2023-07-08T11:48:06;95405.78;;;28.40;57.79
3102;BME280;1561;42.666;23.392;2023-07-08T11:50:37;95410.56;;;28.20;56.38
3102;BME280;1561;42.666;23.392;2023-07-08T11:53:13;95408.25;;;29.55;54.49
3102;BME280;1561;42.666;23.392;2023-07-08T11:55:47;95409.09;;;29.04;56.93
3102;BME280;1561;42.666;23.392;2023-07-08T11:58:24;95400.63;;;29.70;57.02
3102;BME280;1561;42.666;23.392;2023-07-08T12:00:57;95407.81;;;28.84;58.53
3102;BME280;1561;42.666;23.392;2023-07-08T12:03:37;95416.16;;;28.92;56.60
3102;BME280;1561;42.666;23.392;2023-07-08T12:09:25;95408.31;;;28.69;57.26
3102;BME280;1561;42.666;23.392;2023-07-08T12:11:59;95409.66;;;28.37;58.27
3102;BME280;1561;42.666;23.392;2023-07-08T12:14:32;95418.84;;;27.94;58.70
3102;BME280;1561;42.666;23.392;2023-07-08T12:16:59;95412.53;;;27.54;60.66
3102;BME280;1561;42.666;23.392;2023-07-08T12:19:28;95399.84;;;28.33;59.31
3102;BME280;1561;42.666;23.392;2023-07-08T12:21:57;95396.28;;;28.27;59.26
3102;BME280;1561;42.666;23.392;2023-07-08T12:24:27;95406.25;;;28.60;58.76
3102;BME280;1561;42.666;23.392;2023-07-08T12:26:54;95392.63;;;28.17;60.02
3102;BME280;1561;42.666;23.392;2023-07-08T12:29:25;95394.09;;;28.82;59.05
3102;BME280;1561;42.666;23.392;2023-07-08T12:31:54;95384.16;;;28.84;58.13
3102;BME280;1561;42.666;23.392;2023-07-08T12:34:25;95384.31;;;28.54;57.15
3102;BME280;1561;42.666;23.392;2023-07-08T12:36:53;95382.06;;;28.97;57.48
3102;BME280;1561;42.666;23.392;2023-07-08T12:39:21;95385.78;;;28.50;57.22
3102;BME280;1561;42.666;23.392;2023-07-08T12:41:49;95375.97;;;28.23;58.63
3102;BME280;1561;42.666;23.392;2023-07-08T12:44:18;95389.75;;;28.30;58.28
3102;BME280;1561;42.666;23.392;2023-07-08T12:46:52;95369.16;;;27.81;59.19
3102;BME280;1561;42.666;23.392;2023-07-08T12:49:21;95290.91;;;27.71;60.65
3102;BME280;1561;42.666;23.392;2023-07-08T12:51:53;95397.44;;;28.20;61.24
3102;BME280;1561;42.666;23.392;2023-07-08T12:54:20;95399.41;;;27.54;63.96
3102;BME280;1561;42.666;23.392;2023-07-08T12:56:48;95395.09;;;27.89;62.52
3102;BME280;1561;42.666;23.392;2023-07-08T12:59:19;95372.53;;;27.70;63.16
3102;BME280;1561;42.666;23.392;2023-07-08T13:01:49;95389.16;;;27.93;62.69
3102;BME280;1561;42.666;23.392;2023-07-08T13:04:17;95375.56;;;27.96;62.26
3102;BME280;1561;42.666;23.392;2023-07-08T13:06:46;95385.66;;;27.70;63.63
3102;BME280;1561;42.666;23.392;2023-07-08T13:09:28;95384.13;;;27.62;65.08
3102;BME280;1561;42.666;23.392;2023-07-08T13:11:57;95402.75;;;27.31;65.54
3102;BME280;1561;42.666;23.392;2023-07-08T13:14:24;95318.50;;;26.56;65.12
3102;BME280;1561;42.666;23.392;2023-07-08T13:17:11;95398.91;;;26.98;68.23
3102;BME280;1561;42.666;23.392;2023-07-08T13:19:42;95403.69;;;27.96;65.06
3102;BME280;1561;42.666;23.392;2023-07-08T13:22:16;95405.22;;;27.26;64.53
3102;BME280;1561;42.666;23.392;2023-07-08T13:24:46;95386.31;;;27.65;63.99
3102;BME280;1561;42.666;23.392;2023-07-08T13:27:20;95374.13;;;27.71;62.61
3102;BME280;1561;42.666;23.392;2023-07-08T13:29:50;95372.88;;;27.73;61.38